createdAt,value
2019-02-28T00:00:40.795Z,5.40
2019-02-28T00:01:30.576Z,5.40
2019-02-28T00:02:15.016Z,5.40
2019-02-28T00:02:53.883Z,5.50
2019-02-28T00:03:32.297Z,5.50
2019-02-28T00:04:09.814Z,5.50
2019-02-28T00:04:47.512Z,5.50
2019-02-28T00:05:24.967Z,5.50
2019-02-28T00:06:02.553Z,5.50
2019-02-28T00:06:40.122Z,5.50
2019-02-28T00:07:18.684Z,5.50
2019-02-28T00:07:56.369Z,5.50
2019-02-28T00:08:34.199Z,5.50
2019-02-28T00:09:12.419Z,5.50
2019-02-28T00:09:50.393Z,5.60
2019-02-28T00:10:30.741Z,5.60
2019-02-28T00:11:07.975Z,5.60
2019-02-28T00:11:45.582Z,5.60
2019-02-28T00:12:23.582Z,5.60
2019-02-28T00:13:01.624Z,5.60
2019-02-28T00:13:39.286Z,5.60
2019-02-28T00:14:17.370Z,5.60
2019-02-28T00:14:58.615Z,5.60
2019-02-28T00:15:34.868Z,5.60
2019-02-28T00:16:12.640Z,5.60
2019-02-28T00:16:50.663Z,5.60
2019-02-28T00:17:28.651Z,5.60
2019-02-28T00:18:06.075Z,5.60
2019-02-28T00:18:49.332Z,5.60
2019-02-28T00:19:23.977Z,5.60
2019-02-28T00:20:02.362Z,5.60
2019-02-28T00:20:59.074Z,5.60
2019-02-28T00:21:37.361Z,5.60
2019-02-28T00:22:16.398Z,5.60
2019-02-28T00:22:54.521Z,5.60
2019-02-28T00:23:32.749Z,5.60
2019-02-28T00:24:10.479Z,5.70
2019-02-28T00:24:48.149Z,5.70
2019-02-28T00:25:26.281Z,5.70
2019-02-28T00:26:03.725Z,5.70
2019-02-28T00:26:46.222Z,5.70
2019-02-28T00:27:22.085Z,5.70
2019-02-28T00:28:00.258Z,5.70
2019-02-28T00:28:38.020Z,5.70
2019-02-28T00:29:15.738Z,5.70
2019-02-28T00:29:52.795Z,5.70
2019-02-28T00:30:30.989Z,5.70
2019-02-28T00:31:08.991Z,5.70
2019-02-28T00:31:49.290Z,5.70
2019-02-28T00:32:25.921Z,5.80
2019-02-28T00:33:03.640Z,5.80
2019-02-28T00:33:40.807Z,5.80
2019-02-28T00:34:18.882Z,5.80
2019-02-28T00:34:56.289Z,5.80
2019-02-28T00:35:34.135Z,5.80
2019-02-28T00:36:12.065Z,5.90
2019-02-28T00:36:50.351Z,5.80
2019-02-28T00:37:28.981Z,5.80
2019-02-28T00:38:06.809Z,5.90
2019-02-28T00:38:44.470Z,5.90
2019-02-28T00:39:22.210Z,5.80
2019-02-28T00:40:00.185Z,5.90
2019-02-28T00:40:38.689Z,5.90
2019-02-28T00:41:17.135Z,5.90
2019-02-28T00:41:55.159Z,5.90
2019-02-28T00:42:32.941Z,5.90
2019-02-28T00:43:10.781Z,5.90
2019-02-28T00:43:48.510Z,5.80
2019-02-28T00:44:30.462Z,5.90
2019-02-28T00:45:06.233Z,5.80
2019-02-28T00:45:43.401Z,5.80
2019-02-28T00:46:21.085Z,5.80
2019-02-28T00:47:01.125Z,5.80
2019-02-28T00:47:39.053Z,5.90
2019-02-28T00:48:18.265Z,5.90
2019-02-28T00:49:01.449Z,5.80
2019-02-28T00:49:39.201Z,5.80
2019-02-28T00:50:16.594Z,5.90
2019-02-28T00:50:54.578Z,5.90
2019-02-28T00:51:31.731Z,5.80
2019-02-28T00:52:09.299Z,5.90
2019-02-28T00:52:46.911Z,5.80
2019-02-28T00:53:24.273Z,5.90
2019-02-28T00:54:02.057Z,5.80
2019-02-28T00:54:42.982Z,5.80
2019-02-28T00:55:19.542Z,5.80
2019-02-28T00:55:57.805Z,5.70
2019-02-28T00:56:35.569Z,5.70
2019-02-28T00:57:13.039Z,5.70
2019-02-28T00:57:50.213Z,5.70
2019-02-28T00:58:28.956Z,5.70
2019-02-28T00:59:07.454Z,5.70
2019-02-28T00:59:45.223Z,5.70
2019-02-28T01:00:23.306Z,5.60
2019-02-28T01:01:01.432Z,5.60
2019-02-28T01:01:39.345Z,5.60
2019-02-28T01:02:18.495Z,5.60
2019-02-28T01:02:57.987Z,5.60
2019-02-28T01:03:35.837Z,5.60
2019-02-28T01:04:13.697Z,5.60
2019-02-28T01:04:51.174Z,5.60
2019-02-28T01:05:28.961Z,5.60
2019-02-28T01:06:09.703Z,5.50
2019-02-28T01:06:45.811Z,5.50
2019-02-28T01:07:23.353Z,5.50
2019-02-28T01:08:01.057Z,5.50
2019-02-28T01:08:38.723Z,5.50
2019-02-28T01:09:16.117Z,5.50
2019-02-28T01:09:53.873Z,5.40
2019-02-28T01:10:31.994Z,5.40
2019-02-28T01:11:10.449Z,5.40
2019-02-28T01:11:48.923Z,5.40
2019-02-28T01:12:26.913Z,5.30
2019-02-28T01:13:04.985Z,5.30
2019-02-28T01:13:42.429Z,5.30
2019-02-28T01:14:20.152Z,5.30
2019-02-28T01:14:57.957Z,5.30
2019-02-28T01:15:35.515Z,5.30
2019-02-28T01:16:16.107Z,5.30
2019-02-28T01:16:53.619Z,5.20
2019-02-28T01:17:31.204Z,5.20
2019-02-28T01:18:08.683Z,5.20
2019-02-28T01:18:48.019Z,5.20
2019-02-28T01:19:25.981Z,5.20
2019-02-28T01:20:03.837Z,5.20
2019-02-28T01:20:42.105Z,5.20
2019-02-28T01:21:23.672Z,5.20
2019-02-28T01:21:59.296Z,5.20
2019-02-28T01:22:37.063Z,5.20
2019-02-28T01:23:15.091Z,5.20
2019-02-28T01:23:53.159Z,5.10
2019-02-28T01:24:34.530Z,5.10
2019-02-28T01:25:10.495Z,5.20
2019-02-28T01:25:48.536Z,5.10
2019-02-28T01:26:26.341Z,5.10
2019-02-28T01:27:04.121Z,5.10
2019-02-28T01:27:42.044Z,5.10
2019-02-28T01:28:19.731Z,5.10
2019-02-28T01:29:01.471Z,5.10
2019-02-28T01:29:36.737Z,5.10
2019-02-28T01:30:14.627Z,5.10
2019-02-28T01:30:52.717Z,5.10
2019-02-28T01:31:30.467Z,5.10
2019-02-28T01:32:08.709Z,5.10
2019-02-28T01:32:49.769Z,5.10
2019-02-28T01:33:25.823Z,5.10
2019-02-28T01:34:03.204Z,5.10
2019-02-28T01:34:40.642Z,5.10
2019-02-28T01:35:18.213Z,5.10
2019-02-28T01:35:56.061Z,5.10
2019-02-28T01:36:33.465Z,5.10
2019-02-28T01:37:11.067Z,5.10
2019-02-28T01:37:48.893Z,5.10
2019-02-28T01:38:27.021Z,5.10
2019-02-28T01:39:05.865Z,5.10
2019-02-28T01:39:43.729Z,5.10
2019-02-28T01:40:21.206Z,5.10
2019-02-28T01:40:58.221Z,5.10
2019-02-28T01:41:36.307Z,5.10
2019-02-28T01:42:16.252Z,5.10
2019-02-28T01:42:54.843Z,5.10
2019-02-28T01:43:32.517Z,5.10
2019-02-28T01:44:10.521Z,5.10
2019-02-28T01:44:47.961Z,5.10
2019-02-28T01:45:25.083Z,5.10
2019-02-28T01:46:02.201Z,5.10
2019-02-28T01:46:39.633Z,5.10
2019-02-28T01:47:19.980Z,5.10
2019-02-28T01:47:56.732Z,5.10
2019-02-28T01:48:34.760Z,5.10
2019-02-28T01:49:12.807Z,5.10
2019-02-28T01:49:50.249Z,5.10
2019-02-28T01:50:29.610Z,5.10
2019-02-28T01:51:06.555Z,5.00
2019-02-28T01:51:44.393Z,5.00
2019-02-28T01:52:21.622Z,5.00
2019-02-28T01:52:59.402Z,5.00
2019-02-28T01:53:37.512Z,5.00
2019-02-28T01:54:15.461Z,5.00
2019-02-28T01:54:53.155Z,5.00
2019-02-28T01:55:30.955Z,5.00
2019-02-28T01:56:08.667Z,5.00
2019-02-28T01:56:45.691Z,5.00
2019-02-28T01:57:23.213Z,4.90
2019-02-28T01:58:00.253Z,5.00
2019-02-28T01:58:37.855Z,5.00
2019-02-28T01:59:15.644Z,5.00
2019-02-28T01:59:53.686Z,5.00
2019-02-28T02:00:31.531Z,4.90
2019-02-28T02:01:09.113Z,5.00
2019-02-28T02:01:46.483Z,5.00
2019-02-28T02:02:24.348Z,5.00
2019-02-28T02:03:01.863Z,5.00
2019-02-28T02:03:40.753Z,5.00
2019-02-28T02:04:19.266Z,4.90
2019-02-28T02:04:57.185Z,4.90
2019-02-28T02:05:35.325Z,4.90
2019-02-28T02:06:12.912Z,4.90
2019-02-28T02:06:51.065Z,4.90
2019-02-28T02:07:30.551Z,4.90
2019-02-28T02:08:08.003Z,4.90
2019-02-28T02:08:46.110Z,4.90
2019-02-28T02:09:23.601Z,4.90
2019-02-28T02:10:02.173Z,4.90
2019-02-28T02:10:40.209Z,4.90
2019-02-28T02:11:17.641Z,4.90
2019-02-28T02:11:57.976Z,4.90
2019-02-28T02:12:34.997Z,4.90
2019-02-28T02:13:12.691Z,4.90
2019-02-28T02:13:50.765Z,4.90
2019-02-28T02:14:28.702Z,4.90
2019-02-28T02:15:07.821Z,4.90
2019-02-28T02:15:45.371Z,4.90
2019-02-28T02:16:26.848Z,4.90
2019-02-28T02:17:02.467Z,4.90
2019-02-28T02:17:40.210Z,4.90
2019-02-28T02:18:18.007Z,4.90
2019-02-28T02:18:56.019Z,4.90
2019-02-28T02:19:33.931Z,4.90
2019-02-28T02:20:12.311Z,4.90
2019-02-28T02:20:49.981Z,4.80
2019-02-28T02:21:28.257Z,4.80
2019-02-28T02:22:09.149Z,4.80
2019-02-28T02:22:45.621Z,4.80
2019-02-28T02:23:23.640Z,4.80
2019-02-28T02:24:01.367Z,4.80
2019-02-28T02:24:39.159Z,4.80
2019-02-28T02:25:16.957Z,4.80
2019-02-28T02:25:54.716Z,4.80
2019-02-28T02:26:32.513Z,4.80
2019-02-28T02:27:10.503Z,4.80
2019-02-28T02:27:52.963Z,4.80
2019-02-28T02:28:27.927Z,4.80
2019-02-28T02:29:05.703Z,4.80
2019-02-28T02:30:02.628Z,4.80
2019-02-28T02:30:40.204Z,4.80
2019-02-28T02:31:17.934Z,4.80
2019-02-28T02:31:55.869Z,4.70
2019-02-28T02:32:37.459Z,4.80
2019-02-28T02:33:15.487Z,4.80
2019-02-28T02:33:53.236Z,4.80
2019-02-28T02:34:30.018Z,4.80
2019-02-28T02:35:08.441Z,4.80
2019-02-28T02:35:46.514Z,4.80
2019-02-28T02:36:24.192Z,4.80
2019-02-28T02:37:01.905Z,4.70
2019-02-28T02:37:39.505Z,4.80
2019-02-28T02:38:17.547Z,4.70
2019-02-28T02:38:55.485Z,4.80
2019-02-28T02:39:33.271Z,4.80
2019-02-28T02:40:11.525Z,4.80
2019-02-28T02:40:48.928Z,4.80
2019-02-28T02:41:26.734Z,4.70
2019-02-28T02:42:09.789Z,4.70
2019-02-28T02:42:47.268Z,4.70
2019-02-28T02:43:23.144Z,4.80
2019-02-28T02:44:00.265Z,4.80
2019-02-28T02:44:38.383Z,4.80
2019-02-28T02:45:16.103Z,4.80
2019-02-28T02:45:53.753Z,4.70
2019-02-28T02:46:31.205Z,4.70
2019-02-28T02:47:08.989Z,4.70
2019-02-28T02:47:46.574Z,4.70
2019-02-28T02:48:23.740Z,4.70
2019-02-28T02:49:01.476Z,4.70
2019-02-28T02:49:39.459Z,4.70
2019-02-28T02:50:17.022Z,4.70
2019-02-28T02:50:54.470Z,4.70
2019-02-28T02:51:31.852Z,4.70
2019-02-28T02:52:09.582Z,4.70
2019-02-28T02:52:47.587Z,4.70
2019-02-28T02:53:31.679Z,4.70
2019-02-28T02:54:09.232Z,4.70
2019-02-28T02:54:47.225Z,4.70
2019-02-28T02:55:28.941Z,4.70
2019-02-28T02:56:05.045Z,4.70
2019-02-28T02:56:42.840Z,4.70
2019-02-28T02:57:20.246Z,4.70
2019-02-28T02:57:57.968Z,4.70
2019-02-28T02:58:35.804Z,4.70
2019-02-28T02:59:13.196Z,4.70
2019-02-28T02:59:51.223Z,4.70
2019-02-28T03:00:29.216Z,4.70
2019-02-28T03:01:06.717Z,4.70
2019-02-28T03:01:44.496Z,4.70
2019-02-28T03:02:22.122Z,4.70
2019-02-28T03:02:59.892Z,4.60
2019-02-28T03:03:42.682Z,4.70
2019-02-28T03:04:23.136Z,4.60
2019-02-28T03:04:58.479Z,4.70
2019-02-28T03:05:36.682Z,4.70
2019-02-28T03:06:14.869Z,4.70
2019-02-28T03:06:52.600Z,4.60
2019-02-28T03:07:30.242Z,4.70
2019-02-28T03:08:07.947Z,4.70
2019-02-28T03:08:45.629Z,4.60
2019-02-28T03:09:23.654Z,4.70
2019-02-28T03:10:07.160Z,4.70
2019-02-28T03:10:44.499Z,4.70
2019-02-28T03:11:24.710Z,4.70
2019-02-28T03:12:01.869Z,4.60
2019-02-28T03:12:42.569Z,4.60
2019-02-28T03:13:20.427Z,4.60
2019-02-28T03:13:58.438Z,4.60
2019-02-28T03:14:36.525Z,4.70
2019-02-28T03:15:15.655Z,4.70
2019-02-28T03:15:53.671Z,4.70
2019-02-28T03:16:33.075Z,4.70
2019-02-28T03:17:12.083Z,4.70
2019-02-28T03:17:50.039Z,4.70
2019-02-28T03:18:27.538Z,4.70
2019-02-28T03:19:05.323Z,4.70
2019-02-28T03:19:43.310Z,4.70
2019-02-28T03:20:21.355Z,4.70
2019-02-28T03:20:59.000Z,4.70
2019-02-28T03:21:36.703Z,4.70
2019-02-28T03:22:14.797Z,4.70
2019-02-28T03:22:52.444Z,4.70
2019-02-28T03:23:38.159Z,4.70
2019-02-28T03:24:14.597Z,4.70
2019-02-28T03:24:51.082Z,4.70
2019-02-28T03:25:29.083Z,4.60
2019-02-28T03:26:07.249Z,4.60
2019-02-28T03:26:45.105Z,4.60
2019-02-28T03:27:22.663Z,4.60
2019-02-28T03:28:00.370Z,4.60
2019-02-28T03:28:37.781Z,4.60
2019-02-28T03:29:15.505Z,4.60
2019-02-28T03:29:52.787Z,4.60
2019-02-28T03:30:32.769Z,4.60
2019-02-28T03:31:14.458Z,4.60
2019-02-28T03:31:55.296Z,4.60
2019-02-28T03:32:39.354Z,4.60
2019-02-28T03:33:06.342Z,4.60
2019-02-28T03:33:44.343Z,4.50
2019-02-28T03:34:22.027Z,4.60
2019-02-28T03:34:59.827Z,4.60
2019-02-28T03:35:43.338Z,4.60
2019-02-28T03:36:17.229Z,4.50
2019-02-28T03:36:57.349Z,4.50
2019-02-28T03:37:34.605Z,4.50
2019-02-28T03:38:12.741Z,4.50
2019-02-28T03:38:50.508Z,4.50
2019-02-28T03:39:28.100Z,4.50
2019-02-28T03:40:06.669Z,4.50
2019-02-28T03:40:44.377Z,4.50
2019-02-28T03:41:22.142Z,4.50
2019-02-28T03:42:00.337Z,4.50
2019-02-28T03:42:37.846Z,4.50
2019-02-28T03:43:15.711Z,4.50
2019-02-28T03:43:53.596Z,4.50
2019-02-28T03:44:31.094Z,4.50
2019-02-28T03:45:09.085Z,4.50
2019-02-28T03:45:46.694Z,4.50
2019-02-28T03:46:24.684Z,4.50
2019-02-28T03:47:02.120Z,4.50
2019-02-28T03:47:40.033Z,4.40
2019-02-28T03:48:17.821Z,4.40
2019-02-28T03:48:55.901Z,4.40
2019-02-28T03:49:33.483Z,4.40
2019-02-28T03:50:11.573Z,4.40
2019-02-28T03:50:49.458Z,4.40
2019-02-28T03:51:28.336Z,4.40
2019-02-28T03:52:06.941Z,4.40
2019-02-28T03:52:44.862Z,4.40
2019-02-28T03:53:23.047Z,4.40
2019-02-28T03:54:00.776Z,4.40
2019-02-28T03:54:39.001Z,4.40
2019-02-28T03:55:16.733Z,4.40
2019-02-28T03:55:57.053Z,4.40
2019-02-28T03:56:34.558Z,4.40
2019-02-28T03:57:12.549Z,4.40
2019-02-28T03:57:50.399Z,4.40
2019-02-28T03:58:28.570Z,4.40
2019-02-28T03:59:06.089Z,4.40
2019-02-28T03:59:43.645Z,4.40
2019-02-28T04:00:21.402Z,4.40
2019-02-28T04:00:59.560Z,4.40
2019-02-28T04:01:44.827Z,4.40
2019-02-28T04:02:22.127Z,4.40
2019-02-28T04:02:59.010Z,4.40
2019-02-28T04:03:37.042Z,4.30
2019-02-28T04:04:15.182Z,4.30
2019-02-28T04:04:53.103Z,4.30
2019-02-28T04:05:31.378Z,4.30
2019-02-28T04:06:09.019Z,4.30
2019-02-28T04:06:47.112Z,4.30
2019-02-28T04:07:24.828Z,4.30
2019-02-28T04:08:02.528Z,4.30
2019-02-28T04:08:40.067Z,4.20
2019-02-28T04:09:18.129Z,4.20
2019-02-28T04:09:55.999Z,4.20
2019-02-28T04:10:34.080Z,4.20
2019-02-28T04:11:11.880Z,4.20
2019-02-28T04:11:49.396Z,4.20
2019-02-28T04:12:27.088Z,4.20
2019-02-28T04:13:04.704Z,4.20
2019-02-28T04:13:42.464Z,4.10
2019-02-28T04:14:22.149Z,4.20
2019-02-28T04:15:00.423Z,4.20
2019-02-28T04:15:38.263Z,4.10
2019-02-28T04:16:15.869Z,4.10
2019-02-28T04:16:54.511Z,4.10
2019-02-28T04:17:32.001Z,4.10
2019-02-28T04:18:09.838Z,4.10
2019-02-28T04:18:47.912Z,4.10
2019-02-28T04:19:25.903Z,4.00
2019-02-28T04:20:03.717Z,4.00
2019-02-28T04:20:41.418Z,4.00
2019-02-28T04:21:18.890Z,4.00
2019-02-28T04:21:56.259Z,4.00
2019-02-28T04:22:39.321Z,4.00
2019-02-28T04:23:16.809Z,4.00
2019-02-28T04:23:54.888Z,3.90
2019-02-28T04:24:32.399Z,3.90
2019-02-28T04:25:10.860Z,4.00
2019-02-28T04:25:48.879Z,3.90
2019-02-28T04:26:29.810Z,3.90
2019-02-28T04:27:06.829Z,3.90
2019-02-28T04:27:45.712Z,3.90
2019-02-28T04:28:23.432Z,3.90
2019-02-28T04:29:00.691Z,3.90
2019-02-28T04:29:38.492Z,3.90
2019-02-28T04:30:16.346Z,3.90
2019-02-28T04:30:54.187Z,3.90
2019-02-28T04:31:31.872Z,3.90
2019-02-28T04:32:09.663Z,3.90
2019-02-28T04:32:47.596Z,3.90
2019-02-28T04:33:25.840Z,3.90
2019-02-28T04:34:03.379Z,3.90
2019-02-28T04:34:40.852Z,3.90
2019-02-28T04:35:24.372Z,3.90
2019-02-28T04:36:00.610Z,3.90
2019-02-28T04:36:37.206Z,3.90
2019-02-28T04:37:14.660Z,3.90
2019-02-28T04:37:52.833Z,3.90
2019-02-28T04:38:30.670Z,3.90
2019-02-28T04:39:09.136Z,3.90
2019-02-28T04:39:47.098Z,3.90
2019-02-28T04:40:27.003Z,3.90
2019-02-28T04:41:04.071Z,3.90
2019-02-28T04:41:41.871Z,3.90
2019-02-28T04:42:19.634Z,3.90
2019-02-28T04:42:57.316Z,3.90
2019-02-28T04:43:35.328Z,3.80
2019-02-28T04:44:15.445Z,3.80
2019-02-28T04:44:52.962Z,3.80
2019-02-28T04:45:30.493Z,3.90
2019-02-28T04:46:08.264Z,3.90
2019-02-28T04:46:45.866Z,3.90
2019-02-28T04:47:23.558Z,3.90
2019-02-28T04:48:01.451Z,3.90
2019-02-28T04:48:39.062Z,3.90
2019-02-28T04:49:21.735Z,3.90
2019-02-28T04:49:59.900Z,3.90
2019-02-28T04:50:38.049Z,3.90
2019-02-28T04:51:15.824Z,3.90
2019-02-28T04:51:53.302Z,3.90
2019-02-28T04:52:30.746Z,3.90
2019-02-28T04:53:07.974Z,3.90
2019-02-28T04:53:46.100Z,4.00
2019-02-28T04:54:24.611Z,4.00
2019-02-28T04:55:03.934Z,4.10
2019-02-28T04:55:41.840Z,4.10
2019-02-28T04:56:19.552Z,4.10
2019-02-28T04:56:57.376Z,4.20
2019-02-28T04:57:34.980Z,4.20
2019-02-28T04:58:12.915Z,4.20
2019-02-28T04:58:50.742Z,4.20
2019-02-28T04:59:28.321Z,4.30
2019-02-28T05:00:07.266Z,4.30
2019-02-28T05:00:45.076Z,4.30
2019-02-28T05:01:28.860Z,4.30
2019-02-28T05:02:06.433Z,4.30
2019-02-28T05:03:03.032Z,4.30
2019-02-28T05:03:41.136Z,4.30
2019-02-28T05:04:18.676Z,4.30
2019-02-28T05:04:56.324Z,4.30
2019-02-28T05:05:34.032Z,4.40
2019-02-28T05:06:12.014Z,4.40
2019-02-28T05:06:49.102Z,4.30
2019-02-28T05:07:29.615Z,4.30
2019-02-28T05:08:06.524Z,4.30
2019-02-28T05:08:44.600Z,4.30
2019-02-28T05:09:22.648Z,4.20
2019-02-28T05:10:00.233Z,4.20
2019-02-28T05:10:37.818Z,4.20
2019-02-28T05:11:24.051Z,4.20
2019-02-28T05:12:02.441Z,4.20
2019-02-28T05:12:41.154Z,4.20
2019-02-28T05:13:18.726Z,4.20
2019-02-28T05:13:56.119Z,4.20
2019-02-28T05:14:34.087Z,4.20
2019-02-28T05:15:12.645Z,4.10
2019-02-28T05:15:50.253Z,4.20
2019-02-28T05:16:27.937Z,4.10
2019-02-28T05:17:05.093Z,4.10
2019-02-28T05:17:42.216Z,4.10
2019-02-28T05:18:19.336Z,4.00
2019-02-28T05:18:58.296Z,4.00
2019-02-28T05:19:39.803Z,4.00
2019-02-28T05:20:17.410Z,4.00
2019-02-28T05:20:55.300Z,4.00
2019-02-28T05:21:35.636Z,4.00
2019-02-28T05:22:13.224Z,4.00
2019-02-28T05:22:51.014Z,4.00
2019-02-28T05:23:29.080Z,3.90
2019-02-28T05:24:07.676Z,3.90
2019-02-28T05:24:46.286Z,3.90
2019-02-28T05:25:24.286Z,3.90
2019-02-28T05:26:10.900Z,3.90
2019-02-28T05:26:48.637Z,3.90
2019-02-28T05:27:27.321Z,3.90
2019-02-28T05:28:06.778Z,3.90
2019-02-28T05:28:44.018Z,3.90
2019-02-28T05:29:20.900Z,3.90
2019-02-28T05:30:10.058Z,3.90
2019-02-28T05:30:50.207Z,3.90
2019-02-28T05:31:29.980Z,3.90
2019-02-28T05:32:07.240Z,4.00
2019-02-28T05:32:45.008Z,4.00
2019-02-28T05:33:22.311Z,4.00
2019-02-28T05:34:00.275Z,4.00
2019-02-28T05:34:38.388Z,4.00
2019-02-28T05:35:15.977Z,4.00
2019-02-28T05:35:53.638Z,4.00
2019-02-28T05:36:34.631Z,4.00
2019-02-28T05:37:13.199Z,4.00
2019-02-28T05:37:51.724Z,4.00
2019-02-28T05:38:29.866Z,4.00
2019-02-28T05:39:09.239Z,4.00
2019-02-28T05:39:48.619Z,4.10
2019-02-28T05:40:31.188Z,4.10
2019-02-28T05:41:15.060Z,4.10
2019-02-28T05:41:55.518Z,4.10
2019-02-28T05:42:32.764Z,4.10
2019-02-28T05:43:11.568Z,4.00
2019-02-28T05:43:50.978Z,4.00
2019-02-28T05:44:29.661Z,4.00
2019-02-28T05:45:11.359Z,4.00
2019-02-28T05:45:51.682Z,4.00
2019-02-28T05:46:30.420Z,4.00
2019-02-28T05:47:11.347Z,4.00
2019-02-28T05:47:48.517Z,4.00
2019-02-28T05:48:26.668Z,4.10
2019-02-28T05:49:04.117Z,4.10
2019-02-28T05:49:42.015Z,4.10
2019-02-28T05:50:20.244Z,4.10
2019-02-28T05:50:57.436Z,4.10
2019-02-28T05:51:34.924Z,4.10
2019-02-28T05:52:12.858Z,4.10
2019-02-28T05:52:50.904Z,4.10
2019-02-28T05:53:28.244Z,4.10
2019-02-28T05:54:05.761Z,4.00
2019-02-28T05:54:43.869Z,4.00
2019-02-28T05:55:24.854Z,4.00
2019-02-28T05:56:01.372Z,4.00
2019-02-28T05:56:39.409Z,4.00
2019-02-28T05:57:17.463Z,4.00
2019-02-28T05:57:55.229Z,3.90
2019-02-28T05:58:34.386Z,3.90
2019-02-28T05:59:12.148Z,3.90
2019-02-28T05:59:49.832Z,3.90
2019-02-28T06:00:27.802Z,3.90
2019-02-28T06:01:08.662Z,4.00
2019-02-28T06:01:47.036Z,4.00
2019-02-28T06:02:25.670Z,4.00
2019-02-28T06:03:04.099Z,4.00
2019-02-28T06:03:41.562Z,4.00
2019-02-28T06:04:19.552Z,4.00
2019-02-28T06:04:57.467Z,4.00
2019-02-28T06:05:35.273Z,4.00
2019-02-28T06:06:12.817Z,4.00
2019-02-28T06:06:51.276Z,4.00
2019-02-28T06:07:29.908Z,4.10
2019-02-28T06:08:08.040Z,4.10
2019-02-28T06:08:45.920Z,4.10
2019-02-28T06:09:23.752Z,4.10
2019-02-28T06:10:01.549Z,4.10
2019-02-28T06:10:39.061Z,4.10
2019-02-28T06:11:17.170Z,4.10
2019-02-28T06:11:54.425Z,4.10
2019-02-28T06:12:32.410Z,4.10
2019-02-28T06:13:09.890Z,4.10
2019-02-28T06:13:49.689Z,4.10
2019-02-28T06:14:27.812Z,4.10
2019-02-28T06:15:07.078Z,4.10
2019-02-28T06:15:45.050Z,4.10
2019-02-28T06:16:23.020Z,4.20
2019-02-28T06:17:01.139Z,4.20
2019-02-28T06:17:38.937Z,4.20
2019-02-28T06:18:16.194Z,4.20
2019-02-28T06:18:53.697Z,4.20
2019-02-28T06:19:31.380Z,4.20
2019-02-28T06:20:09.832Z,4.30
2019-02-28T06:20:50.941Z,4.30
2019-02-28T06:21:26.832Z,4.30
2019-02-28T06:22:04.246Z,4.30
2019-02-28T06:22:42.143Z,4.30
2019-02-28T06:23:19.473Z,4.30
2019-02-28T06:23:57.356Z,4.30
2019-02-28T06:24:34.686Z,4.30
2019-02-28T06:25:12.017Z,4.30
2019-02-28T06:25:49.505Z,4.30
2019-02-28T06:26:27.211Z,4.30
2019-02-28T06:27:07.764Z,4.30
2019-02-28T06:28:04.357Z,4.40
2019-02-28T06:28:42.260Z,4.40
2019-02-28T06:29:20.029Z,4.40
2019-02-28T06:29:57.537Z,4.40
2019-02-28T06:30:35.321Z,4.40
2019-02-28T06:31:14.421Z,4.40
2019-02-28T06:31:52.633Z,4.40
2019-02-28T06:32:30.525Z,4.40
2019-02-28T06:33:08.272Z,4.40
2019-02-28T06:33:46.176Z,4.50
2019-02-28T06:34:23.983Z,4.50
2019-02-28T06:35:01.668Z,4.50
2019-02-28T06:35:39.140Z,4.50
2019-02-28T06:36:16.951Z,4.50
2019-02-28T06:36:54.589Z,4.60
2019-02-28T06:37:32.298Z,4.60
2019-02-28T06:38:10.291Z,4.60
2019-02-28T06:38:48.301Z,4.60
2019-02-28T06:39:26.890Z,4.60
2019-02-28T06:40:05.703Z,4.60
2019-02-28T06:40:49.073Z,4.70
2019-02-28T06:41:26.855Z,4.70
2019-02-28T06:42:04.348Z,4.70
2019-02-28T06:42:43.510Z,4.70
2019-02-28T06:43:21.968Z,4.70
2019-02-28T06:43:59.885Z,4.70
2019-02-28T06:44:37.291Z,4.80
2019-02-28T06:45:15.536Z,4.80
2019-02-28T06:45:53.229Z,4.80
2019-02-28T06:46:30.993Z,4.80
2019-02-28T06:47:11.300Z,4.80
2019-02-28T06:47:49.891Z,4.80
2019-02-28T06:48:27.990Z,4.90
2019-02-28T06:49:07.149Z,4.90
2019-02-28T06:49:44.259Z,4.90
2019-02-28T06:50:21.830Z,4.90
2019-02-28T06:51:00.023Z,4.90
2019-02-28T06:51:38.073Z,4.90
2019-02-28T06:52:15.833Z,4.90
2019-02-28T06:52:56.360Z,4.90
2019-02-28T06:53:36.307Z,4.90
2019-02-28T06:54:14.289Z,4.90
2019-02-28T06:54:54.298Z,4.90
2019-02-28T06:55:32.421Z,5.00
2019-02-28T06:56:10.181Z,5.00
2019-02-28T06:56:47.868Z,5.00
2019-02-28T06:57:26.741Z,5.00
2019-02-28T06:58:04.800Z,5.00
2019-02-28T06:58:42.260Z,5.00
2019-02-28T06:59:19.672Z,5.10
2019-02-28T06:59:57.471Z,5.10
2019-02-28T07:00:35.120Z,5.10
2019-02-28T07:01:12.793Z,5.10
2019-02-28T07:01:49.961Z,5.10
2019-02-28T07:02:28.511Z,5.10
2019-02-28T07:03:07.501Z,5.20
2019-02-28T07:03:53.314Z,5.20
2019-02-28T07:04:24.177Z,5.20
2019-02-28T07:05:01.964Z,5.20
2019-02-28T07:05:39.733Z,5.20
2019-02-28T07:06:17.143Z,5.20
2019-02-28T07:06:54.669Z,5.30
2019-02-28T07:07:32.714Z,5.30
2019-02-28T07:08:10.854Z,5.30
2019-02-28T07:08:48.677Z,5.30
2019-02-28T07:09:26.695Z,5.30
2019-02-28T07:10:06.189Z,5.40
2019-02-28T07:10:44.895Z,5.40
2019-02-28T07:11:22.317Z,5.40
2019-02-28T07:12:00.575Z,5.40
2019-02-28T07:12:38.465Z,5.40
2019-02-28T07:13:16.478Z,5.40
2019-02-28T07:13:54.144Z,5.40
2019-02-28T07:14:32.348Z,5.50
2019-02-28T07:15:10.416Z,5.50
2019-02-28T07:15:47.793Z,5.50
2019-02-28T07:16:25.715Z,5.50
2019-02-28T07:17:02.861Z,5.50
2019-02-28T07:17:42.608Z,5.50
2019-02-28T07:18:20.024Z,5.50
2019-02-28T07:18:57.652Z,5.50
2019-02-28T07:19:34.817Z,5.50
2019-02-28T07:20:14.149Z,5.60
2019-02-28T07:20:51.525Z,5.60
2019-02-28T07:21:29.311Z,5.60
2019-02-28T07:22:07.185Z,5.60
2019-02-28T07:22:44.897Z,5.60
2019-02-28T07:23:22.482Z,5.60
2019-02-28T07:24:02.433Z,5.60
2019-02-28T07:24:39.874Z,5.70
2019-02-28T07:25:17.364Z,5.70
2019-02-28T07:25:54.771Z,5.70
2019-02-28T07:26:32.339Z,5.70
2019-02-28T07:27:10.292Z,5.70
2019-02-28T07:27:48.577Z,5.70
2019-02-28T07:28:26.692Z,5.70
2019-02-28T07:29:04.734Z,5.70
2019-02-28T07:29:42.703Z,5.70
2019-02-28T07:30:21.083Z,5.70
2019-02-28T07:30:59.025Z,5.70
2019-02-28T07:31:36.945Z,5.70
2019-02-28T07:32:15.117Z,5.80
2019-02-28T07:32:52.629Z,5.80
2019-02-28T07:33:30.207Z,5.80
2019-02-28T07:34:08.011Z,5.80
2019-02-28T07:34:45.270Z,5.80
2019-02-28T07:35:23.051Z,5.80
2019-02-28T07:36:01.196Z,5.80
2019-02-28T07:36:41.497Z,5.80
2019-02-28T07:37:19.668Z,5.80
2019-02-28T07:37:57.543Z,5.80
2019-02-28T07:38:35.429Z,5.80
2019-02-28T07:39:13.228Z,5.80
2019-02-28T07:39:50.990Z,5.80
2019-02-28T07:40:29.083Z,5.80
2019-02-28T07:41:06.857Z,5.80
2019-02-28T07:41:44.243Z,5.80
2019-02-28T07:42:22.509Z,5.80
2019-02-28T07:43:00.071Z,5.80
2019-02-28T07:43:37.889Z,5.80
2019-02-28T07:44:21.057Z,5.80
2019-02-28T07:44:57.885Z,5.80
2019-02-28T07:45:34.537Z,5.80
2019-02-28T07:46:12.553Z,5.80
2019-02-28T07:46:49.959Z,5.80
2019-02-28T07:47:27.713Z,5.90
2019-02-28T07:48:06.043Z,5.90
2019-02-28T07:48:43.568Z,5.90
2019-02-28T07:49:21.553Z,5.90
2019-02-28T07:49:59.563Z,5.90
2019-02-28T07:50:38.551Z,5.90
2019-02-28T07:51:18.534Z,5.90
2019-02-28T07:51:56.943Z,5.90
2019-02-28T07:52:35.378Z,5.90
2019-02-28T07:53:12.882Z,5.90
2019-02-28T07:53:50.732Z,5.90
2019-02-28T07:54:28.865Z,5.90
2019-02-28T07:55:08.243Z,5.90
2019-02-28T07:55:45.816Z,5.90
2019-02-28T07:56:23.909Z,5.90
2019-02-28T07:57:01.727Z,6.00
2019-02-28T07:57:39.527Z,6.00
2019-02-28T07:58:16.609Z,6.00
2019-02-28T07:58:54.557Z,5.90
2019-02-28T07:59:32.029Z,5.90
2019-02-28T08:00:16.810Z,5.90
2019-02-28T08:01:10.743Z,6.00
2019-02-28T08:01:50.738Z,5.90
2019-02-28T08:02:27.337Z,5.90
2019-02-28T08:03:05.431Z,5.90
2019-02-28T08:03:43.322Z,5.90
2019-02-28T08:04:22.262Z,5.90
2019-02-28T08:04:59.628Z,5.90
2019-02-28T08:05:37.395Z,5.90
2019-02-28T08:06:14.661Z,5.90
2019-02-28T08:06:52.613Z,5.90
2019-02-28T08:07:30.366Z,5.90
2019-02-28T08:08:08.065Z,5.90
2019-02-28T08:08:46.163Z,5.90
2019-02-28T08:09:29.101Z,5.90
2019-02-28T08:10:08.749Z,5.90
2019-02-28T08:11:05.483Z,5.90
2019-02-28T08:11:43.275Z,5.90
2019-02-28T08:12:21.205Z,5.90
2019-02-28T08:12:59.201Z,6.00
2019-02-28T08:13:37.883Z,6.00
2019-02-28T08:14:16.111Z,6.00
2019-02-28T08:14:53.964Z,6.00
2019-02-28T08:15:31.548Z,6.00
2019-02-28T08:16:09.548Z,6.00
2019-02-28T08:16:49.200Z,6.00
2019-02-28T08:17:27.233Z,6.00
2019-02-28T08:18:05.817Z,6.00
2019-02-28T08:18:43.549Z,6.00
2019-02-28T08:19:22.978Z,6.00
2019-02-28T08:20:00.749Z,6.00
2019-02-28T08:20:38.871Z,6.00
2019-02-28T08:21:16.259Z,6.00
2019-02-28T08:21:53.890Z,6.00
2019-02-28T08:22:31.377Z,6.00
2019-02-28T08:23:09.259Z,6.00
2019-02-28T08:23:47.497Z,6.00
2019-02-28T08:24:26.531Z,6.00
2019-02-28T08:25:07.728Z,6.00
2019-02-28T08:25:43.541Z,6.10
2019-02-28T08:26:21.608Z,6.10
2019-02-28T08:26:59.369Z,6.10
2019-02-28T08:27:36.471Z,6.10
2019-02-28T08:28:15.740Z,6.10
2019-02-28T08:28:53.786Z,6.10
2019-02-28T08:29:31.818Z,6.10
2019-02-28T08:30:12.438Z,6.10
2019-02-28T08:30:54.978Z,6.10